Time;durP1;ratioP1;P1;durP2;ratioP2;P2;SDS_P1;SDS_P2;PMS_P1;PMS_P2;Temp;Humidity;BMP_temperature;BMP_pressure;BME280_temperature;BME280_humidity;BME280_pressure;Samples;Min_cycle;Max_cycle;Signal;HPM_P1;HPM_P2
2021/07/07 00:02:00;;;;;;;7.15;4.65;;;;;;;21.15;73.35;100107.04;1726107;82;20930;-77
2021/07/07 00:04:26;;;;;;;6.20;4.45;;;;;;;21.10;73.57;100105.45;1708482;82;21005;-79
2021/07/07 00:06:52;;;;;;;7.05;5.17;;;;;;;21.09;73.65;100101.10;1707519;82;21036;-77
2021/07/07 00:09:20;;;;;;;6.30;4.92;;;;;;;21.07;73.81;100105.02;1717640;82;21825;-77
2021/07/07 00:11:47;;;;;;;7.00;5.10;;;;;;;21.03;74.11;100109.93;1730587;82;21038;-77
2021/07/07 00:14:13;;;;;;;6.92;4.40;;;;;;;21.01;74.22;100111.98;1735111;82;20969;-77
2021/07/07 00:16:40;;;;;;;7.75;4.60;;;;;;;20.98;74.23;100108.36;1709454;82;20966;-79
2021/07/07 00:19:06;;;;;;;6.83;4.37;;;;;;;20.96;74.23;100098.85;1731252;82;21053;-77
2021/07/07 00:21:33;;;;;;;4.72;4.10;;;;;;;20.93;74.31;100107.28;1712744;82;21815;-77
2021/07/07 00:24:01;;;;;;;7.83;4.40;;;;;;;20.88;74.44;100108.39;1685556;84;20989;-77
2021/07/07 00:26:28;;;;;;;4.92;4.40;;;;;;;20.81;74.48;100107.81;1674322;84;21001;-77
2021/07/07 00:28:55;;;;;;;6.95;4.40;;;;;;;20.79;74.45;100115.75;1685164;83;21454;-78
2021/07/07 00:31:21;;;;;;;4.78;3.83;;;;;;;20.79;74.46;100113.07;1678056;84;21444;-77
2021/07/07 00:33:47;;;;;;;4.78;3.80;;;;;;;20.73;74.32;100113.84;1668680;84;22182;-77
2021/07/07 00:36:14;;;;;;;7.53;3.85;;;;;;;20.70;74.18;100124.97;1682046;84;21017;-77
2021/07/07 00:38:40;;;;;;;4.47;3.52;;;;;;;20.68;73.99;100118.97;1689546;84;21097;-77
2021/07/07 00:41:07;;;;;;;4.58;3.20;;;;;;;20.65;73.79;100122.02;1669290;84;21032;-77
2021/07/07 00:43:34;;;;;;;3.37;3.08;;;;;;;20.57;73.53;100120.33;1674335;84;21028;-77
2021/07/07 00:46:02;;;;;;;5.35;3.25;;;;;;;20.53;73.15;100122.55;1686672;84;21768;-77
2021/07/07 00:48:29;;;;;;;3.98;3.08;;;;;;;20.50;72.85;100126.96;1693807;83;20972;-77
2021/07/07 00:50:59;;;;;;;4.50;3.17;;;;;;;20.47;72.48;100124.67;1687040;84;21032;-77
2021/07/07 00:53:25;;;;;;;5.30;2.85;;;;;;;20.42;72.18;100129.73;1667939;84;22813;-77
2021/07/07 00:55:53;;;;;;;3.92;2.70;;;;;;;20.38;71.94;100127.12;1668529;84;20965;-77
2021/07/07 00:58:21;;;;;;;4.17;2.85;;;;;;;20.34;71.78;100131.20;1651962;84;21956;-78
2021/07/07 01:00:48;;;;;;;3.52;2.65;;;;;;;20.35;71.60;100135.54;1688380;84;20969;-74
2021/07/07 01:03:14;;;;;;;3.90;2.52;;;;;;;20.32;71.43;100131.91;1691025;84;21084;-77
2021/07/07 01:05:41;;;;;;;3.00;2.70;;;;;;;20.30;71.28;100141.49;1669977;84;21039;-77
2021/07/07 01:08:07;;;;;;;4.67;2.80;;;;;;;20.27;71.14;100141.88;1694366;83;20991;-77
2021/07/07 01:10:35;;;;;;;3.72;2.75;;;;;;;20.23;71.11;100139.75;1703880;83;22227;-77
2021/07/07 01:13:01;;;;;;;3.58;2.75;;;;;;;20.20;71.12;100140.14;1692670;83;21011;-78
2021/07/07 01:15:28;;;;;;;4.95;2.72;;;;;;;20.19;71.07;100139.31;1693597;83;21423;-77
2021/07/07 01:17:54;;;;;;;4.33;2.80;;;;;;;20.19;70.88;100143.84;1683245;83;21015;-77
2021/07/07 01:20:23;;;;;;;3.25;2.80;;;;;;;20.19;70.78;100143.34;1670624;83;20987;-77
2021/07/07 01:22:50;;;;;;;3.50;2.67;;;;;;;20.17;70.75;100147.20;1676437;84;21820;-77
2021/07/07 01:25:17;;;;;;;4.67;3.02;;;;;;;20.13;70.64;100152.64;1681372;84;21055;-78
2021/07/07 01:27:43;;;;;;;5.17;2.90;;;;;;;20.13;70.61;100147.28;1692540;84;21537;-77
2021/07/07 01:30:15;;;;;;;4.33;2.70;;;;;;;20.13;70.66;100144.59;1719352;82;20948;-77
2021/07/07 01:32:42;;;;;;;5.75;2.77;;;;;;;20.13;70.58;100149.95;1717742;82;20944;-77
2021/07/07 01:35:11;;;;;;;5.05;2.92;;;;;;;20.12;70.64;100156.34;1697156;83;21795;-77
2021/07/07 01:37:38;;;;;;;5.08;3.02;;;;;;;20.13;70.76;100152.13;1693395;83;20996;-77
2021/07/07 01:40:08;;;;;;;6.28;3.10;;;;;;;20.14;70.92;100152.95;1676075;83;21692;-77
2021/07/07 01:42:34;;;;;;;6.20;3.45;;;;;;;20.14;71.06;100158.31;1692384;84;21031;-77
2021/07/07 01:45:01;;;;;;;5.53;3.33;;;;;;;20.12;71.14;100152.32;1692826;84;20951;-77
2021/07/07 01:47:27;;;;;;;5.65;3.30;;;;;;;20.12;71.25;100157.69;1691059;84;21793;-77
2021/07/07 01:49:54;;;;;;;5.80;3.40;;;;;;;20.12;71.26;100156.34;1672004;84;21552;-77
2021/07/07 01:52:21;;;;;;;5.58;3.42;;;;;;;20.14;71.31;100155.13;1684918;84;20945;-78
2021/07/07 01:54:47;;;;;;;4.55;3.85;;;;;;;20.16;71.44;100156.27;1667245;84;20983;-77
2021/07/07 01:57:14;;;;;;;7.37;3.72;;;;;;;20.17;71.64;100156.11;1669478;84;21024;-77
2021/07/07 01:59:40;;;;;;;6.22;3.52;;;;;;;20.19;71.74;100154.58;1672941;84;22590;-77
2021/07/07 02:02:07;;;;;;;4.97;3.98;;;;;;;20.20;71.92;100158.91;1670623;84;21463;-77
2021/07/07 02:04:34;;;;;;;4.65;3.55;;;;;;;20.22;72.12;100167.59;1665034;84;21106;-77
2021/07/07 02:07:01;;;;;;;6.53;4.00;;;;;;;20.20;72.24;100168.30;1653569;84;20981;-77
2021/07/07 02:09:28;;;;;;;6.55;3.50;;;;;;;20.19;72.32;100167.47;1645369;87;20960;-77
2021/07/07 02:11:56;;;;;;;4.50;3.22;;;;;;;20.17;72.27;100168.66;1647252;85;21085;-77
2021/07/07 02:14:22;;;;;;;6.15;3.42;;;;;;;20.16;72.19;100179.06;1721864;82;21022;-77
2021/07/07 02:16:49;;;;;;;4.28;3.40;;;;;;;20.13;71.95;100181.62;1719814;82;20961;-77
2021/07/07 02:19:15;;;;;;;6.00;3.25;;;;;;;20.11;71.87;100185.01;1719057;82;21056;-77
2021/07/07 02:21:42;;;;;;;4.78;3.60;;;;;;;20.11;71.72;100186.34;1720611;82;20941;-77
2021/07/07 02:24:08;;;;;;;4.50;3.12;;;;;;;20.11;71.56;100185.01;1713781;82;22202;-78
2021/07/07 02:26:35;;;;;;;6.03;3.35;;;;;;;20.12;71.38;100188.52;1706913;82;20973;-77
2021/07/07 02:29:02;;;;;;;5.65;3.50;;;;;;;20.09;71.22;100188.39;1712235;82;20961;-77
2021/07/07 02:31:30;;;;;;;3.85;3.17;;;;;;;20.07;71.15;100192.26;1706907;82;21436;-77
2021/07/07 02:33:56;;;;;;;3.75;3.20;;;;;;;20.06;71.08;100186.58;1706931;82;20977;-77
2021/07/07 02:36:24;;;;;;;5.03;3.20;;;;;;;20.04;70.97;100181.92;1721950;82;21790;-77
2021/07/07 02:38:50;;;;;;;3.80;3.40;;;;;;;19.99;70.89;100184.67;1719857;82;20937;-77
2021/07/07 02:41:18;;;;;;;3.87;3.20;;;;;;;19.97;70.78;100189.36;1729392;81;20930;-77
2021/07/07 02:43:44;;;;;;;3.65;3.15;;;;;;;19.95;70.70;100192.74;1728826;82;20993;-77
2021/07/07 02:46:11;;;;;;;3.50;3.20;;;;;;;19.95;70.67;100188.72;1721716;82;21143;-77
2021/07/07 02:48:39;;;;;;;5.05;3.10;;;;;;;19.95;70.62;100199.95;1706955;82;20950;-77
2021/07/07 02:51:06;;;;;;;5.85;3.10;;;;;;;19.92;70.63;100194.98;1722859;82;21493;-75
2021/07/07 02:53:33;;;;;;;5.80;3.33;;;;;;;19.92;70.57;100197.14;1732479;82;21076;-75
2021/07/07 02:55:59;;;;;;;5.10;3.30;;;;;;;19.93;70.47;100201.48;1702331;82;21021;-75
2021/07/07 02:58:26;;;;;;;5.05;3.05;;;;;;;19.94;70.32;100206.34;1707778;82;20985;-75
2021/07/07 03:00:52;;;;;;;4.90;3.00;;;;;;;19.93;70.15;100204.67;1703644;82;21739;-75
2021/07/07 03:03:21;;;;;;;4.22;2.95;;;;;;;19.94;69.98;100206.34;1714986;82;21425;-76
2021/07/07 03:05:52;;;;;;;3.45;2.98;;;;;;;19.92;69.87;100211.89;1722710;82;21013;-76
2021/07/07 03:08:23;;;;;;;4.80;2.87;;;;;;;19.91;69.73;100209.41;1729264;82;20961;-76
2021/07/07 03:10:50;;;;;;;3.37;2.83;;;;;;;19.90;69.75;100217.13;1728463;82;21436;-76
2021/07/07 03:13:19;;;;;;;4.53;2.55;;;;;;;19.88;69.65;100220.00;1733631;82;21784;-76
2021/07/07 03:15:45;;;;;;;5.12;2.98;;;;;;;19.89;69.63;100227.53;1716205;82;20996;-76
2021/07/07 03:18:12;;;;;;;4.15;2.95;;;;;;;19.88;69.65;100223.16;1735365;82;20993;-76
2021/07/07 03:20:43;;;;;;;6.42;3.17;;;;;;;19.88;69.74;100225.36;1720831;82;21344;-76
2021/07/07 03:23:10;;;;;;;5.75;3.30;;;;;;;19.88;69.73;100224.49;1732566;82;21039;-77
2021/07/07 03:25:37;;;;;;;6.22;2.80;;;;;;;19.86;69.71;100229.22;1716463;82;21475;-76
2021/07/07 03:28:04;;;;;;;4.87;3.10;;;;;;;19.82;69.79;100227.42;1718005;82;21017;-77
2021/07/07 03:30:32;;;;;;;3.58;3.15;;;;;;;19.82;69.90;100230.11;1726890;82;20965;-76
2021/07/07 03:33:00;;;;;;;5.90;3.12;;;;;;;19.85;70.00;100232.92;1743750;82;20994;-76
2021/07/07 03:35:28;;;;;;;4.97;2.95;;;;;;;19.88;70.03;100237.42;1722461;82;21431;-77
2021/07/07 03:37:55;;;;;;;3.45;2.77;;;;;;;19.91;69.93;100245.08;1715609;82;22263;-77
2021/07/07 03:40:21;;;;;;;3.55;3.22;;;;;;;19.93;69.60;100240.87;1738297;81;21025;-76
2021/07/07 03:42:48;;;;;;;4.72;2.80;;;;;;;19.95;69.32;100241.50;1741952;82;20986;-76
2021/07/07 03:45:17;;;;;;;3.52;3.00;;;;;;;19.98;69.36;100245.18;1729833;82;21001;-76
2021/07/07 03:47:44;;;;;;;5.55;2.98;;;;;;;19.98;69.35;100248.69;1718805;82;21030;-76
2021/07/07 03:50:11;;;;;;;6.25;3.05;;;;;;;20.00;69.13;100245.81;1723298;82;21778;-76
2021/07/07 03:52:37;;;;;;;3.17;2.80;;;;;;;20.02;69.07;100253.16;1731900;82;20977;-76
2021/07/07 03:55:14;;;;;;;6.53;3.10;;;;;;;20.05;68.96;100250.61;1743202;82;20960;-76
2021/07/07 03:57:41;;;;;;;4.75;2.75;;;;;;;20.09;68.75;100250.58;1726679;82;21284;-76
2021/07/07 04:00:12;;;;;;;4.92;3.12;;;;;;;20.13;68.44;100247.32;1739232;82;21071;-71
2021/07/07 04:02:38;;;;;;;3.55;2.80;;;;;;;20.17;68.40;100250.45;1720722;81;22444;-76
2021/07/07 04:05:06;;;;;;;5.03;2.35;;;;;;;20.24;68.35;100250.03;1722758;82;21432;-76
2021/07/07 04:07:33;;;;;;;4.50;2.50;;;;;;;20.31;68.03;100256.31;1726277;81;21459;-76
2021/07/07 04:10:00;;;;;;;4.92;2.70;;;;;;;20.36;67.90;100253.88;1715305;82;20993;-77
2021/07/07 04:12:27;;;;;;;4.58;2.37;;;;;;;20.42;67.64;100261.19;1707067;82;21001;-77
2021/07/07 04:14:54;;;;;;;3.35;2.30;;;;;;;20.46;67.40;100257.16;1719836;82;22643;-77
2021/07/07 04:17:21;;;;;;;3.80;2.70;;;;;;;20.50;66.92;100266.48;1735128;82;20930;-86
2021/07/07 04:19:48;;;;;;;4.75;2.67;;;;;;;20.55;66.92;100272.61;1721188;82;21013;-83
2021/07/07 04:22:14;;;;;;;3.67;2.37;;;;;;;20.60;66.84;100264.00;1702423;81;20982;-82
2021/07/07 04:24:42;;;;;;;3.60;2.35;;;;;;;20.64;66.64;100266.62;1696679;82;20869;-82
2021/07/07 04:27:09;;;;;;;2.77;2.50;;;;;;;20.65;66.25;100271.79;1706519;84;21840;-84
2021/07/07 04:29:36;;;;;;;2.90;2.50;;;;;;;20.63;66.07;100267.13;1707233;82;21424;-78
2021/07/07 04:32:03;;;;;;;5.05;2.50;;;;;;;20.64;65.93;100269.30;1712339;82;20957;-73
2021/07/07 04:34:30;;;;;;;3.65;2.27;;;;;;;20.66;65.87;100266.77;1709960;82;21025;-77
2021/07/07 04:36:57;;;;;;;4.42;2.62;;;;;;;20.71;65.59;100272.39;1706629;82;20997;-80
2021/07/07 04:39:23;;;;;;;2.92;2.37;;;;;;;20.75;65.44;100274.17;1715025;82;22192;-74
2021/07/07 04:41:50;;;;;;;2.98;2.52;;;;;;;20.81;65.60;100277.45;1713397;82;21394;-80
2021/07/07 04:44:16;;;;;;;2.65;2.42;;;;;;;20.85;65.43;100274.72;1712140;82;20998;-80
2021/07/07 04:46:42;;;;;;;4.20;2.72;;;;;;;20.88;65.26;100268.13;1726610;82;20961;-79
2021/07/07 04:49:10;;;;;;;3.77;2.80;;;;;;;20.91;65.42;100277.96;1732231;82;20939;-79
2021/07/07 04:51:36;;;;;;;5.00;2.70;;;;;;;20.96;65.28;100278.23;1724451;82;21670;-80
2021/07/07 04:54:03;;;;;;;3.67;2.75;;;;;;;20.97;65.15;100291.98;1734587;82;21496;-79
2021/07/07 04:56:30;;;;;;;3.42;2.50;;;;;;;20.97;65.26;100287.95;1721524;81;21001;-79
2021/07/07 04:58:58;;;;;;;4.50;2.50;;;;;;;21.02;65.49;100286.84;1706339;84;21364;-79
2021/07/07 05:01:25;;;;;;;3.37;2.40;;;;;;;21.04;65.34;100292.88;1708289;82;21006;-79
2021/07/07 05:03:52;;;;;;;4.37;2.60;;;;;;;21.06;65.05;100294.86;1736009;82;22290;-79
2021/07/07 05:06:19;;;;;;;3.58;2.70;;;;;;;21.07;64.87;100293.83;1736146;81;21029;-79
2021/07/07 05:08:47;;;;;;;3.92;2.27;;;;;;;21.10;64.87;100299.32;1736081;82;21016;-79
2021/07/07 05:11:13;;;;;;;2.80;2.50;;;;;;;21.10;64.52;100299.32;1736189;81;21520;-79
2021/07/07 05:13:40;;;;;;;3.58;2.70;;;;;;;21.10;64.52;100305.52;1715085;82;20941;-80
2021/07/07 05:16:06;;;;;;;7.55;5.58;;;;;;;21.11;64.54;100310.38;1736092;82;22771;-79
2021/07/07 05:18:33;;;;;;;4.30;2.90;;;;;;;21.10;64.49;100316.27;1736046;81;21029;-79
2021/07/07 05:21:00;;;;;;;4.00;3.60;;;;;;;21.09;64.53;100322.66;1735958;82;20966;-79
2021/07/07 05:23:26;;;;;;;3.52;3.00;;;;;;;21.10;64.79;100320.80;1736008;82;21033;-80
2021/07/07 05:25:53;;;;;;;5.65;3.27;;;;;;;21.15;64.96;100322.42;1736012;82;20938;-79
2021/07/07 05:28:19;;;;;;;3.25;2.80;;;;;;;21.20;64.85;100328.03;1736371;82;22173;-80
2021/07/07 05:30:45;;;;;;;3.70;2.65;;;;;;;21.24;64.87;100328.50;1698390;83;21091;-80
2021/07/07 05:33:12;;;;;;;6.35;2.50;;;;;;;21.28;64.94;100331.14;1706993;84;21002;-80
2021/07/07 05:35:38;;;;;;;4.92;2.70;;;;;;;21.32;64.80;100323.83;1706630;82;21435;-80
2021/07/07 05:38:05;;;;;;;4.78;2.77;;;;;;;21.36;64.73;100331.02;1710297;82;20993;-80
2021/07/07 05:40:32;;;;;;;2.90;2.40;;;;;;;21.42;64.73;100326.19;1727773;82;22242;-80
2021/07/07 05:42:58;;;;;;;3.08;2.60;;;;;;;21.43;64.74;100331.91;1708221;82;20922;-80
2021/07/07 05:45:26;;;;;;;4.62;2.50;;;;;;;21.49;64.63;100332.46;1735589;81;21009;-80
2021/07/07 05:47:53;;;;;;;6.00;2.95;;;;;;;21.53;64.49;100336.44;1717753;82;21052;-79
2021/07/07 05:50:20;;;;;;;4.35;2.50;;;;;;;21.59;64.31;100338.34;1706750;84;20934;-80
2021/07/07 05:52:47;;;;;;;3.02;2.47;;;;;;;21.63;64.17;100336.94;1706902;84;21792;-80
2021/07/07 05:55:14;;;;;;;2.75;2.27;;;;;;;21.73;64.10;100333.08;1706576;83;21496;-80
2021/07/07 05:57:41;;;;;;;3.45;2.52;;;;;;;21.83;63.74;100333.05;1706592;84;20934;-79
2021/07/07 06:00:18;;;;;;;6.53;2.60;;;;;;;21.91;62.96;100330.73;1706688;83;21017;-80
2021/07/07 06:02:44;;;;;;;3.70;2.62;;;;;;;21.96;62.90;100339.03;1705959;84;21068;-77
2021/07/07 06:05:12;;;;;;;5.40;2.85;;;;;;;22.04;63.02;100342.09;1707524;82;21826;-79
2021/07/07 06:07:39;;;;;;;3.67;2.55;;;;;;;22.12;62.72;100346.00;1714531;83;20972;-78
2021/07/07 06:10:08;;;;;;;5.37;2.55;;;;;;;22.17;62.64;100341.67;1746374;82;21506;-80
2021/07/07 06:12:35;;;;;;;6.30;2.50;;;;;;;22.17;62.81;100341.67;1720937;82;20973;-79
2021/07/07 06:15:03;;;;;;;3.95;2.62;;;;;;;22.22;62.97;100343.78;1749126;82;20979;-79
2021/07/07 06:17:30;;;;;;;3.85;2.40;;;;;;;22.25;63.00;100348.76;1750028;80;22228;-80
2021/07/07 06:19:56;;;;;;;4.28;2.40;;;;;;;22.25;62.84;100350.10;1738628;82;20996;-81
2021/07/07 06:22:23;;;;;;;5.65;2.47;;;;;;;22.26;62.76;100348.55;1744441;82;20941;-75
2021/07/07 06:24:50;;;;;;;9.00;2.35;;;;;;;22.31;62.79;100351.19;1740875;82;21051;-78
2021/07/07 06:27:16;;;;;;;2.75;2.10;;;;;;;22.34;62.41;100350.27;1720560;83;20984;-81
2021/07/07 06:29:43;;;;;;;4.90;2.40;;;;;;;22.38;62.76;100355.55;1720200;82;22187;-77
2021/07/07 06:32:09;;;;;;;5.05;2.30;;;;;;;22.50;63.27;100361.22;1720227;82;20953;-82
2021/07/07 06:34:36;;;;;;;3.25;2.10;;;;;;;22.68;63.33;100359.30;1749679;82;20965;-80
2021/07/07 06:37:03;;;;;;;4.55;2.30;;;;;;;22.83;62.59;100360.83;1750194;82;20957;-82
2021/07/07 06:39:30;;;;;;;4.10;2.52;;;;;;;23.00;61.88;100366.72;1723582;82;21000;-82
2021/07/07 06:41:56;;;;;;;4.62;2.20;;;;;;;23.11;60.84;100373.38;1720962;82;22171;-80
2021/07/07 06:44:23;;;;;;;6.33;2.37;;;;;;;23.20;60.53;100373.50;1720108;83;21397;-80
2021/07/07 06:46:49;;;;;;;3.12;2.27;;;;;;;23.30;60.18;100369.89;1737925;82;21325;-80
2021/07/07 06:49:16;;;;;;;3.72;1.95;;;;;;;23.41;59.74;100381.41;1720076;83;21382;-80
2021/07/07 06:51:43;;;;;;;6.72;5.00;;;;;;;23.50;59.09;100382.57;1720082;83;20969;-78
2021/07/07 06:54:09;;;;;;;5.85;2.72;;;;;;;23.53;58.62;100391.58;1740271;82;22460;-81
2021/07/07 06:56:36;;;;;;;5.45;2.35;;;;;;;23.51;58.68;100385.57;1721981;82;21422;-81
2021/07/07 06:59:02;;;;;;;4.67;2.35;;;;;;;23.54;58.58;100394.59;1720373;83;20988;-81
2021/07/07 07:01:29;;;;;;;2.67;2.20;;;;;;;23.55;58.28;100389.02;1740494;80;21447;-82
2021/07/07 07:03:55;;;;;;;3.22;2.10;;;;;;;23.55;58.60;100389.53;1742993;82;21033;-82
2021/07/07 07:06:21;;;;;;;6.75;2.47;;;;;;;23.42;57.94;100389.81;1722758;82;22770;-82
2021/07/07 07:08:48;;;;;;;4.03;2.15;;;;;;;23.25;58.23;100396.61;1722014;82;20921;-80
2021/07/07 07:11:17;;;;;;;3.30;2.45;;;;;;;23.19;58.80;100397.45;1715599;82;21000;-82
2021/07/07 07:13:45;;;;;;;4.70;2.80;;;;;;;23.23;59.41;100395.98;1734580;82;21039;-87
2021/07/07 07:16:13;;;;;;;3.02;2.20;;;;;;;23.23;59.40;100400.03;1721116;82;20945;-85
2021/07/07 07:18:40;;;;;;;5.00;3.10;;;;;;;23.29;60.00;100399.23;1743141;82;22641;-84
2021/07/07 07:21:07;;;;;;;4.37;2.80;;;;;;;23.32;59.38;100402.86;1749537;80;21020;-83
2021/07/07 07:23:33;;;;;;;3.98;3.15;;;;;;;23.29;59.93;100399.23;1747885;82;21265;-83
2021/07/07 07:26:35;;;;;;;3.72;2.75;;;;;;;23.29;60.03;100395.70;1742004;82;20989;-83
2021/07/07 07:29:03;;;;;;;3.80;2.57;;;;;;;23.36;60.30;100392.52;1729758;82;21412;-83
2021/07/07 07:31:30;;;;;;;8.10;2.30;;;;;;;23.46;59.82;100403.73;1749865;82;22577;-83
2021/07/07 07:33:56;;;;;;;2.58;2.22;;;;;;;23.53;59.43;100409.11;1749840;82;20989;-83
2021/07/07 07:36:24;;;;;;;3.50;2.08;;;;;;;23.60;58.95;100405.42;1722665;82;21064;-83
2021/07/07 07:39:08;;;;;;;3.02;2.30;;;;;;;23.67;57.60;100398.70;1750012;82;21393;-83
2021/07/07 07:41:38;;;;;;;8.25;2.47;;;;;;;23.69;57.59;100402.01;1749030;82;21471;-80
2021/07/07 07:44:08;;;;;;;2.70;2.40;;;;;;;23.75;57.76;100399.84;1749098;82;22439;-84
2021/07/07 07:46:35;;;;;;;3.15;2.22;;;;;;;23.77;57.74;100400.46;1734388;82;21007;-81
2021/07/07 07:49:01;;;;;;;7.17;2.35;;;;;;;23.85;57.81;100402.95;1747667;82;21348;-85
2021/07/07 07:51:29;;;;;;;3.30;2.02;;;;;;;23.93;57.93;100396.50;1720284;82;21415;-85
2021/07/07 07:53:58;;;;;;;4.35;2.15;;;;;;;24.01;57.53;100393.59;1749878;82;20992;-83
2021/07/07 07:56:24;;;;;;;15.38;10.95;;;;;;;24.04;57.23;100395.89;1749579;82;22208;-83
2021/07/07 07:58:51;;;;;;;11.28;7.33;;;;;;;24.13;57.34;100393.81;1749672;82;20993;-83
2021/07/07 08:01:18;;;;;;;5.17;3.40;;;;;;;24.22;57.00;100392.52;1749192;82;21064;-83
2021/07/07 08:03:44;;;;;;;4.10;2.30;;;;;;;24.36;57.12;100402.82;1732786;82;21080;-83
2021/07/07 08:06:11;;;;;;;4.80;2.20;;;;;;;24.55;57.34;100405.98;1720142;83;21387;-83
2021/07/07 08:08:37;;;;;;;3.35;2.17;;;;;;;24.74;56.62;100402.91;1710034;83;22153;-84
2021/07/07 08:11:05;;;;;;;4.45;2.40;;;;;;;24.86;55.33;100410.65;1706450;84;21104;-84
2021/07/07 08:13:31;;;;;;;3.20;2.30;;;;;;;24.92;54.63;100397.65;1706613;83;20946;-84
2021/07/07 08:15:58;;;;;;;6.58;3.17;;;;;;;24.99;54.29;100405.17;1706562;82;21456;-84
2021/07/07 08:18:25;;;;;;;7.00;2.20;;;;;;;25.02;53.17;100406.15;1706581;84;21531;-84
2021/07/07 08:20:51;;;;;;;5.03;2.27;;;;;;;24.99;52.13;100407.05;1707476;82;22822;-84
2021/07/07 08:23:17;;;;;;;10.78;2.55;;;;;;;25.02;52.67;100410.20;1706491;83;21021;-84
2021/07/07 08:25:46;;;;;;;7.55;2.50;;;;;;;25.09;52.34;100413.70;1706601;84;21052;-84
2021/07/07 08:28:12;;;;;;;3.62;2.40;;;;;;;25.15;52.33;100412.00;1706487;84;20966;-83
2021/07/07 08:30:39;;;;;;;4.55;2.33;;;;;;;25.20;52.30;100415.42;1707066;84;21432;-83
2021/07/07 08:33:05;;;;;;;4.17;2.47;;;;;;;25.24;52.30;100419.34;1711873;82;22451;-83
2021/07/07 08:35:32;;;;;;;7.50;4.97;;;;;;;25.25;52.51;100418.29;1735645;82;21008;-80
2021/07/07 08:37:58;;;;;;;7.95;4.33;;;;;;;25.24;52.49;100415.28;1734815;82;20974;-83
2021/07/07 08:40:25;;;;;;;5.87;2.62;;;;;;;25.26;52.87;100415.89;1736281;82;21058;-85
2021/07/07 08:42:52;;;;;;;4.05;2.67;;;;;;;25.40;53.07;100416.13;1732171;82;21016;-86
2021/07/07 08:45:19;;;;;;;4.12;2.67;;;;;;;25.60;52.93;100418.70;1705280;82;21782;-85
2021/07/07 08:47:46;;;;;;;7.47;2.98;;;;;;;25.79;51.78;100410.98;1705412;82;21036;-85
2021/07/07 08:50:31;;;;;;;7.40;2.90;;;;;;;25.94;52.34;100416.05;1706297;83;21001;-86
2021/07/07 08:53:01;;;;;;;6.85;2.60;;;;;;;26.08;51.90;100418.96;1685948;84;20977;-87
2021/07/07 08:55:26;;;;;;;2.42;2.22;;;;;;;26.18;51.08;100417.10;1707547;82;20989;-87
2021/07/07 08:57:53;;;;;;;7.25;2.50;;;;;;;26.36;49.80;100421.72;1706703;84;22775;-86
2021/07/07 09:00:33;;;;;;;5.28;2.40;;;;;;;26.50;49.14;100419.19;1706735;84;20945;-87
2021/07/07 09:03:05;;;;;;;5.08;2.47;;;;;;;26.46;48.70;100420.18;1686264;84;20985;-87
2021/07/07 09:05:55;;;;;;;6.97;5.12;;;;;;;26.46;48.71;100424.77;1706698;84;21005;-87
2021/07/07 09:08:24;;;;;;;7.42;3.10;;;;;;;26.46;49.00;100426.13;1713128;83;21060;-87
2021/07/07 09:10:53;;;;;;;6.62;2.80;;;;;;;26.46;49.40;100431.02;1721105;82;21795;-87
2021/07/07 09:13:21;;;;;;;5.85;2.80;;;;;;;26.49;49.34;100429.73;1719979;82;20948;-86
2021/07/07 09:15:48;;;;;;;5.03;2.80;;;;;;;26.49;49.32;100440.56;1720118;83;20973;-86
2021/07/07 09:18:24;;;;;;;4.53;2.55;;;;;;;26.40;49.67;100440.02;1720016;83;21009;-87
2021/07/07 09:20:50;;;;;;;6.42;2.75;;;;;;;26.32;49.49;100441.63;1719027;83;20989;-87
2021/07/07 09:23:27;;;;;;;6.37;3.00;;;;;;;26.28;49.82;100440.96;1720362;83;21468;-86
2021/07/07 09:26:00;;;;;;;8.50;2.80;;;;;;;26.29;50.20;100449.38;1719838;82;20947;-85
2021/07/07 09:28:30;;;;;;;5.55;2.72;;;;;;;26.25;49.59;100451.72;1721443;82;20988;-86
2021/07/07 09:31:02;;;;;;;7.50;2.65;;;;;;;26.15;49.57;100449.52;1720340;83;20988;-86
2021/07/07 09:33:40;;;;;;;3.77;2.50;;;;;;;26.13;49.93;100457.53;1720152;83;20989;-86
2021/07/07 09:36:21;;;;;;;7.83;2.70;;;;;;;26.11;49.82;100455.05;1720340;83;21794;-86
2021/07/07 09:38:49;;;;;;;3.10;2.35;;;;;;;26.07;49.35;100451.14;1719677;82;20989;-86
2021/07/07 09:41:16;;;;;;;6.35;3.10;;;;;;;26.07;49.07;100453.85;1720329;83;21448;-87
2021/07/07 09:43:48;;;;;;;6.30;2.90;;;;;;;25.93;49.09;100453.64;1720783;83;20965;-87
2021/07/07 09:46:14;;;;;;;5.10;3.67;;;;;;;25.87;49.98;100454.02;1722859;82;21506;-87
2021/07/07 09:48:41;;;;;;;4.62;2.55;;;;;;;25.99;50.09;100452.77;1670866;83;21716;-86
2021/07/07 09:51:08;;;;;;;4.47;2.40;;;;;;;26.18;50.22;100463.95;1726760;82;20996;-87
2021/07/07 09:53:34;;;;;;;4.40;2.50;;;;;;;26.40;50.64;100467.11;1750250;82;21149;-87
2021/07/07 09:56:02;;;;;;;7.70;2.50;;;;;;;26.57;50.54;100461.95;1748909;82;20953;-87
2021/07/07 09:58:30;;;;;;;5.75;2.47;;;;;;;26.64;48.88;100461.89;1750319;82;20973;-87
2021/07/07 10:00:57;;;;;;;4.78;2.40;;;;;;;26.59;48.73;100461.19;1750351;82;21858;-87
2021/07/07 10:03:23;;;;;;;4.80;2.25;;;;;;;26.70;49.67;100463.15;1724888;82;20945;-86
2021/07/07 10:05:51;;;;;;;4.47;2.47;;;;;;;26.96;50.06;100467.44;1720393;83;21008;-86
2021/07/07 10:08:19;;;;;;;5.28;2.62;;;;;;;27.22;48.95;100464.14;1720443;83;21005;-85
2021/07/07 10:10:46;;;;;;;4.37;2.40;;;;;;;27.40;48.34;100468.14;1720365;83;20989;-86
2021/07/07 10:13:13;;;;;;;3.20;2.35;;;;;;;27.45;47.95;100472.36;1720689;83;22198;-86
2021/07/07 10:15:40;;;;;;;8.68;2.40;;;;;;;27.58;47.83;100468.63;1720332;83;21128;-87
2021/07/07 10:18:07;;;;;;;9.58;3.40;;;;;;;27.72;47.26;100471.48;1720823;83;21009;-86
2021/07/07 10:20:35;;;;;;;5.75;2.70;;;;;;;27.84;48.15;100470.98;1721682;82;20961;-85
2021/07/07 10:23:03;;;;;;;6.83;2.27;;;;;;;28.06;47.33;100470.41;1720795;83;20953;-86
2021/07/07 10:25:31;;;;;;;4.55;2.30;;;;;;;28.24;46.60;100473.86;1720741;83;22520;-86
2021/07/07 10:28:04;;;;;;;9.28;2.33;;;;;;;28.36;46.71;100477.14;1720453;83;20997;-86
2021/07/07 10:30:58;;;;;;;7.25;2.50;;;;;;;28.47;47.32;100471.72;1694336;82;20960;-87
2021/07/07 10:33:31;;;;;;;4.70;2.30;;;;;;;28.71;47.26;100468.44;1720533;82;21036;-87
2021/07/07 10:36:18;;;;;;;;;;;;;;;28.96;46.33;100474.16;1730335;82;21471;-87
2021/07/07 10:38:54;;;;;;;2.98;1.85;;;;;;;29.19;45.41;100471.90;1732355;82;20604;-87
2021/07/07 10:41:49;;;;;;;2.70;1.90;;;;;;;29.33;44.20;100461.83;1720709;82;20953;-87
2021/07/07 10:44:30;;;;;;;9.03;2.37;;;;;;;29.44;43.40;100462.88;1720469;82;21037;-87
2021/07/07 10:47:09;;;;;;;3.37;2.10;;;;;;;29.73;43.41;100462.34;1720409;83;21480;-88
2021/07/07 10:49:51;;;;;;;4.62;2.20;;;;;;;29.73;43.41;100462.34;1720176;83;21032;-87
2021/07/07 10:52:41;;;;;;;3.25;1.98;;;;;;;29.44;44.60;100463.41;1720653;82;22218;-87
2021/07/07 10:55:12;;;;;;;10.03;2.00;;;;;;;29.43;43.72;100461.73;1736388;82;21005;-87
2021/07/07 10:57:40;;;;;;;4.03;2.00;;;;;;;29.43;43.72;100461.73;1750021;80;20969;-85
2021/07/07 11:00:38;;;;;;;3.27;1.70;;;;;;;29.36;42.47;100465.98;1750181;82;21424;-86
2021/07/07 11:03:33;;;;;;;3.45;1.87;;;;;;;29.25;42.27;100459.53;1749986;82;20933;-81
2021/07/07 11:06:24;;;;;;;4.53;1.80;;;;;;;29.59;42.77;100451.45;1750093;82;21738;-82
2021/07/07 11:08:59;;;;;;;3.72;1.70;;;;;;;29.59;42.77;100451.45;1724481;81;20965;-84
2021/07/07 11:11:26;;;;;;;4.12;1.70;;;;;;;29.94;41.14;100455.34;1752165;81;20973;-82
2021/07/07 11:13:52;;;;;;;4.20;1.62;;;;;;;30.20;41.00;100447.86;1757964;81;20961;-83
2021/07/07 11:16:22;;;;;;;5.10;1.62;;;;;;;30.52;41.23;100449.98;1757756;81;21381;-83
2021/07/07 11:18:50;;;;;;;4.03;1.70;;;;;;;30.68;40.10;100449.66;1758099;81;22252;-86
2021/07/07 11:21:17;;;;;;;3.60;1.82;;;;;;;30.73;39.99;100451.92;1729953;81;20992;-86
2021/07/07 11:23:44;;;;;;;3.77;1.60;;;;;;;30.60;39.38;100456.37;1752589;81;21063;-86
2021/07/07 11:26:11;;;;;;;10.48;3.35;;;;;;;30.36;39.67;100455.73;1745533;81;20997;-86
2021/07/07 11:28:38;;;;;;;7.10;3.85;;;;;;;30.36;40.10;100458.46;1745094;81;21035;-87
2021/07/07 11:31:05;;;;;;;9.28;4.20;;;;;;;30.38;39.25;100454.13;1742528;81;21662;-88